sensor_id;sensor_type;location;lat;lon;timestamp;P1;durP1;ratioP1;P2;durP2;ratioP2
10343;SDS011;5217;43.960;10.954;2023-10-19T00:01:56;3.70;;;3.40;;
10343;SDS011;5217;43.960;10.954;2023-10-19T00:04:26;4.35;;;3.75;;
10343;SDS011;5217;43.960;10.954;2023-10-19T00:06:58;6.55;;;3.60;;
10343;SDS011;5217;43.960;10.954;2023-10-19T00:09:26;4.95;;;3.20;;
10343;SDS011;5217;43.960;10.954;2023-10-19T00:12:03;5.72;;;3.10;;
10343;SDS011;5217;43.960;10.954;2023-10-19T00:14:34;4.53;;;3.50;;
10343;SDS011;5217;43.960;10.954;2023-10-19T00:17:02;4.35;;;3.25;;
10343;SDS011;5217;43.960;10.954;2023-10-19T00:19:32;3.22;;;2.92;;
10343;SDS011;5217;43.960;10.954;2023-10-19T00:22:06;4.10;;;3.00;;
10343;SDS011;5217;43.960;10.954;2023-10-19T00:24:42;4.72;;;3.40;;
10343;SDS011;5217;43.960;10.954;2023-10-19T00:27:10;3.42;;;2.88;;
10343;SDS011;5217;43.960;10.954;2023-10-19T00:29:45;5.05;;;3.50;;
10343;SDS011;5217;43.960;10.954;2023-10-19T00:32:16;7.20;;;3.45;;
10343;SDS011;5217;43.960;10.954;2023-10-19T00:34:46;5.00;;;3.35;;
10343;SDS011;5217;43.960;10.954;2023-10-19T00:37:19;4.68;;;3.00;;
10343;SDS011;5217;43.960;10.954;2023-10-19T00:39:53;3.78;;;3.10;;
10343;SDS011;5217;43.960;10.954;2023-10-19T00:42:23;4.72;;;3.03;;
10343;SDS011;5217;43.960;10.954;2023-10-19T00:44:59;3.75;;;3.35;;
10343;SDS011;5217;43.960;10.954;2023-10-19T00:47:31;6.28;;;3.45;;
10343;SDS011;5217;43.960;10.954;2023-10-19T00:50:07;5.53;;;3.40;;
10343;SDS011;5217;43.960;10.954;2023-10-19T00:52:42;4.65;;;3.17;;
10343;SDS011;5217;43.960;10.954;2023-10-19T00:55:16;6.13;;;3.13;;
10343;SDS011;5217;43.960;10.954;2023-10-19T00:57:48;4.78;;;3.00;;
10343;SDS011;5217;43.960;10.954;2023-10-19T01:00:20;7.40;;;3.33;;
10343;SDS011;5217;43.960;10.954;2023-10-19T01:02:57;5.00;;;3.28;;
10343;SDS011;5217;43.960;10.954;2023-10-19T01:05:32;3.97;;;3.10;;
10343;SDS011;5217;43.960;10.954;2023-10-19T01:08:03;3.03;;;2.75;;
10343;SDS011;5217;43.960;10.954;2023-10-19T01:10:46;6.85;;;2.97;;
10343;SDS011;5217;43.960;10.954;2023-10-19T01:13:19;2.92;;;2.60;;
10343;SDS011;5217;43.960;10.954;2023-10-19T01:15:55;4.05;;;3.08;;
10343;SDS011;5217;43.960;10.954;2023-10-19T01:18:25;4.47;;;2.80;;
10343;SDS011;5217;43.960;10.954;2023-10-19T01:20:59;4.88;;;2.90;;
10343;SDS011;5217;43.960;10.954;2023-10-19T01:23:33;4.70;;;2.90;;
10343;SDS011;5217;43.960;10.954;2023-10-19T01:26:02;5.05;;;2.92;;
10343;SDS011;5217;43.960;10.954;2023-10-19T01:28:34;4.20;;;2.83;;
10343;SDS011;5217;43.960;10.954;2023-10-19T01:31:11;5.65;;;2.90;;
10343;SDS011;5217;43.960;10.954;2023-10-19T01:33:49;4.93;;;3.22;;
10343;SDS011;5217;43.960;10.954;2023-10-19T01:36:20;4.35;;;3.00;;
10343;SDS011;5217;43.960;10.954;2023-10-19T01:38:53;3.58;;;2.75;;
10343;SDS011;5217;43.960;10.954;2023-10-19T01:41:22;3.85;;;2.67;;
10343;SDS011;5217;43.960;10.954;2023-10-19T01:43:53;3.78;;;2.92;;
10343;SDS011;5217;43.960;10.954;2023-10-19T01:46:32;4.05;;;3.10;;
10343;SDS011;5217;43.960;10.954;2023-10-19T01:49:03;8.00;;;2.80;;
10343;SDS011;5217;43.960;10.954;2023-10-19T01:51:32;5.70;;;3.15;;
10343;SDS011;5217;43.960;10.954;2023-10-19T01:54:06;4.90;;;2.95;;
10343;SDS011;5217;43.960;10.954;2023-10-19T01:56:36;3.38;;;2.92;;
10343;SDS011;5217;43.960;10.954;2023-10-19T01:59:05;3.80;;;3.10;;
10343;SDS011;5217;43.960;10.954;2023-10-19T02:01:35;3.72;;;2.90;;
10343;SDS011;5217;43.960;10.954;2023-10-19T02:04:05;4.47;;;3.25;;
10343;SDS011;5217;43.960;10.954;2023-10-19T02:06:35;4.43;;;3.10;;
10343;SDS011;5217;43.960;10.954;2023-10-19T02:09:07;4.20;;;3.60;;
10343;SDS011;5217;43.960;10.954;2023-10-19T02:11:44;5.13;;;3.17;;
10343;SDS011;5217;43.960;10.954;2023-10-19T02:14:14;6.78;;;3.40;;
10343;SDS011;5217;43.960;10.954;2023-10-19T02:16:42;4.20;;;3.42;;
10343;SDS011;5217;43.960;10.954;2023-10-19T02:19:13;5.20;;;3.47;;
10343;SDS011;5217;43.960;10.954;2023-10-19T02:21:41;4.50;;;3.00;;
10343;SDS011;5217;43.960;10.954;2023-10-19T02:24:12;6.03;;;3.90;;
10343;SDS011;5217;43.960;10.954;2023-10-19T02:26:41;4.95;;;3.50;;
10343;SDS011;5217;43.960;10.954;2023-10-19T02:29:10;4.90;;;3.70;;
10343;SDS011;5217;43.960;10.954;2023-10-19T02:31:39;5.20;;;3.38;;
10343;SDS011;5217;43.960;10.954;2023-10-19T02:34:09;4.35;;;3.70;;
10343;SDS011;5217;43.960;10.954;2023-10-19T02:36:42;7.00;;;3.83;;
10343;SDS011;5217;43.960;10.954;2023-10-19T02:39:13;5.68;;;3.78;;
10343;SDS011;5217;43.960;10.954;2023-10-19T02:41:42;4.55;;;3.35;;
10343;SDS011;5217;43.960;10.954;2023-10-19T02:44:12;4.40;;;3.05;;
10343;SDS011;5217;43.960;10.954;2023-10-19T02:46:46;3.97;;;3.58;;
10343;SDS011;5217;43.960;10.954;2023-10-19T02:49:37;4.40;;;3.58;;
10343;SDS011;5217;43.960;10.954;2023-10-19T02:52:06;5.25;;;3.67;;
10343;SDS011;5217;43.960;10.954;2023-10-19T02:54:38;5.10;;;3.65;;
10343;SDS011;5217;43.960;10.954;2023-10-19T02:57:06;3.70;;;3.35;;
10343;SDS011;5217;43.960;10.954;2023-10-19T02:59:38;3.78;;;3.20;;
10343;SDS011;5217;43.960;10.954;2023-10-19T03:02:06;6.03;;;3.20;;
10343;SDS011;5217;43.960;10.954;2023-10-19T03:04:42;4.60;;;3.20;;
10343;SDS011;5217;43.960;10.954;2023-10-19T03:07:11;4.82;;;3.10;;
10343;SDS011;5217;43.960;10.954;2023-10-19T03:09:41;5.90;;;3.13;;
10343;SDS011;5217;43.960;10.954;2023-10-19T03:12:15;3.05;;;2.70;;
10343;SDS011;5217;43.960;10.954;2023-10-19T03:14:43;4.85;;;2.50;;
10343;SDS011;5217;43.960;10.954;2023-10-19T03:17:14;3.30;;;2.50;;
10343;SDS011;5217;43.960;10.954;2023-10-19T03:22:11;6.80;;;2.88;;
10343;SDS011;5217;43.960;10.954;2023-10-19T03:24:43;4.72;;;3.47;;
10343;SDS011;5217;43.960;10.954;2023-10-19T03:27:12;4.68;;;3.20;;
10343;SDS011;5217;43.960;10.954;2023-10-19T03:29:43;4.13;;;3.13;;
10343;SDS011;5217;43.960;10.954;2023-10-19T03:32:13;5.13;;;2.80;;
10343;SDS011;5217;43.960;10.954;2023-10-19T03:34:42;5.63;;;2.75;;
10343;SDS011;5217;43.960;10.954;2023-10-19T03:37:16;4.70;;;3.08;;
10343;SDS011;5217;43.960;10.954;2023-10-19T03:39:46;4.72;;;3.03;;
10343;SDS011;5217;43.960;10.954;2023-10-19T03:42:15;4.90;;;2.88;;
10343;SDS011;5217;43.960;10.954;2023-10-19T03:44:44;4.13;;;2.95;;
10343;SDS011;5217;43.960;10.954;2023-10-19T03:47:19;3.35;;;2.92;;
10343;SDS011;5217;43.960;10.954;2023-10-19T03:49:52;4.68;;;3.00;;
10343;SDS011;5217;43.960;10.954;2023-10-19T03:52:23;4.47;;;3.10;;
10343;SDS011;5217;43.960;10.954;2023-10-19T03:54:56;4.55;;;3.05;;
10343;SDS011;5217;43.960;10.954;2023-10-19T03:57:25;3.67;;;2.60;;
10343;SDS011;5217;43.960;10.954;2023-10-19T03:59:56;5.05;;;2.90;;
10343;SDS011;5217;43.960;10.954;2023-10-19T04:02:25;4.50;;;2.70;;
10343;SDS011;5217;43.960;10.954;2023-10-19T04:04:56;6.03;;;2.70;;
10343;SDS011;5217;43.960;10.954;2023-10-19T04:07:26;3.42;;;2.55;;
10343;SDS011;5217;43.960;10.954;2023-10-19T04:10:01;6.50;;;3.20;;
10343;SDS011;5217;43.960;10.954;2023-10-19T04:12:37;3.33;;;2.65;;
10343;SDS011;5217;43.960;10.954;2023-10-19T04:15:09;3.17;;;2.53;;
10343;SDS011;5217;43.960;10.954;2023-10-19T04:17:42;3.85;;;2.70;;
10343;SDS011;5217;43.960;10.954;2023-10-19T04:20:12;3.08;;;2.50;;
10343;SDS011;5217;43.960;10.954;2023-10-19T04:22:56;3.22;;;2.30;;
10343;SDS011;5217;43.960;10.954;2023-10-19T04:25:32;3.13;;;2.47;;
10343;SDS011;5217;43.960;10.954;2023-10-19T04:28:01;3.83;;;2.90;;
10343;SDS011;5217;43.960;10.954;2023-10-19T04:30:31;3.63;;;2.40;;
10343;SDS011;5217;43.960;10.954;2023-10-19T04:33:03;4.82;;;2.80;;
10343;SDS011;5217;43.960;10.954;2023-10-19T04:35:35;4.60;;;2.60;;
10343;SDS011;5217;43.960;10.954;2023-10-19T04:38:09;3.85;;;2.95;;
10343;SDS011;5217;43.960;10.954;2023-10-19T04:40:37;3.70;;;2.58;;
10343;SDS011;5217;43.960;10.954;2023-10-19T04:43:06;5.10;;;2.75;;
10343;SDS011;5217;43.960;10.954;2023-10-19T04:45:34;5.07;;;3.05;;
10343;SDS011;5217;43.960;10.954;2023-10-19T04:48:07;4.55;;;2.70;;
10343;SDS011;5217;43.960;10.954;2023-10-19T04:50:36;3.50;;;2.55;;
10343;SDS011;5217;43.960;10.954;2023-10-19T04:53:06;5.28;;;2.63;;
10343;SDS011;5217;43.960;10.954;2023-10-19T04:55:36;3.85;;;2.38;;
10343;SDS011;5217;43.960;10.954;2023-10-19T04:58:04;3.88;;;2.33;;
10343;SDS011;5217;43.960;10.954;2023-10-19T05:00:33;4.15;;;2.20;;
10343;SDS011;5217;43.960;10.954;2023-10-19T05:03:01;4.65;;;2.72;;
10343;SDS011;5217;43.960;10.954;2023-10-19T05:05:30;3.50;;;2.40;;
10343;SDS011;5217;43.960;10.954;2023-10-19T05:07:59;4.35;;;2.50;;
10343;SDS011;5217;43.960;10.954;2023-10-19T05:10:27;3.55;;;2.40;;
10343;SDS011;5217;43.960;10.954;2023-10-19T05:12:57;3.80;;;2.58;;
10343;SDS011;5217;43.960;10.954;2023-10-19T05:15:25;4.20;;;2.10;;
10343;SDS011;5217;43.960;10.954;2023-10-19T05:17:54;2.30;;;2.10;;
10343;SDS011;5217;43.960;10.954;2023-10-19T05:20:22;2.47;;;2.03;;
10343;SDS011;5217;43.960;10.954;2023-10-19T05:22:52;3.33;;;2.40;;
10343;SDS011;5217;43.960;10.954;2023-10-19T05:25:20;3.00;;;2.20;;
10343;SDS011;5217;43.960;10.954;2023-10-19T05:27:50;4.28;;;2.50;;
10343;SDS011;5217;43.960;10.954;2023-10-19T05:30:20;2.45;;;2.17;;
10343;SDS011;5217;43.960;10.954;2023-10-19T05:32:50;3.38;;;2.08;;
10343;SDS011;5217;43.960;10.954;2023-10-19T05:35:19;2.65;;;2.08;;
10343;SDS011;5217;43.960;10.954;2023-10-19T05:37:52;2.95;;;1.95;;
10343;SDS011;5217;43.960;10.954;2023-10-19T05:40:22;4.57;;;2.30;;
10343;SDS011;5217;43.960;10.954;2023-10-19T05:42:56;2.83;;;2.00;;
10343;SDS011;5217;43.960;10.954;2023-10-19T05:45:28;3.85;;;2.33;;
10343;SDS011;5217;43.960;10.954;2023-10-19T05:47:57;3.65;;;2.60;;
10343;SDS011;5217;43.960;10.954;2023-10-19T05:50:26;4.93;;;2.60;;
10343;SDS011;5217;43.960;10.954;2023-10-19T05:52:55;3.53;;;2.00;;
10343;SDS011;5217;43.960;10.954;2023-10-19T05:55:23;2.55;;;1.90;;
10343;SDS011;5217;43.960;10.954;2023-10-19T05:57:52;3.03;;;2.10;;
10343;SDS011;5217;43.960;10.954;2023-10-19T06:00:21;2.53;;;2.00;;
10343;SDS011;5217;43.960;10.954;2023-10-19T06:02:53;3.42;;;2.33;;
10343;SDS011;5217;43.960;10.954;2023-10-19T06:05:22;2.47;;;1.70;;
10343;SDS011;5217;43.960;10.954;2023-10-19T06:07:51;3.55;;;2.03;;
10343;SDS011;5217;43.960;10.954;2023-10-19T06:10:19;2.30;;;1.80;;
10343;SDS011;5217;43.960;10.954;2023-10-19T06:12:49;2.47;;;2.00;;
10343;SDS011;5217;43.960;10.954;2023-10-19T06:15:19;2.97;;;2.15;;
10343;SDS011;5217;43.960;10.954;2023-10-19T06:17:49;2.08;;;1.70;;
10343;SDS011;5217;43.960;10.954;2023-10-19T06:20:20;2.60;;;1.80;;
10343;SDS011;5217;43.960;10.954;2023-10-19T06:22:53;2.20;;;2.00;;
10343;SDS011;5217;43.960;10.954;2023-10-19T06:25:24;2.45;;;1.80;;
10343;SDS011;5217;43.960;10.954;2023-10-19T06:27:52;2.35;;;1.80;;
10343;SDS011;5217;43.960;10.954;2023-10-19T06:30:24;2.47;;;1.92;;
10343;SDS011;5217;43.960;10.954;2023-10-19T06:32:53;2.40;;;2.20;;
10343;SDS011;5217;43.960;10.954;2023-10-19T06:35:24;2.40;;;2.20;;
10343;SDS011;5217;43.960;10.954;2023-10-19T06:37:53;3.28;;;2.20;;
10343;SDS011;5217;43.960;10.954;2023-10-19T06:40:23;2.30;;;1.90;;
10343;SDS011;5217;43.960;10.954;2023-10-19T06:42:54;2.42;;;1.92;;
10343;SDS011;5217;43.960;10.954;2023-10-19T06:45:23;2.50;;;2.20;;
10343;SDS011;5217;43.960;10.954;2023-10-19T06:47:53;2.67;;;2.13;;
10343;SDS011;5217;43.960;10.954;2023-10-19T06:50:22;2.67;;;2.00;;
10343;SDS011;5217;43.960;10.954;2023-10-19T06:52:53;2.03;;;1.70;;
10343;SDS011;5217;43.960;10.954;2023-10-19T06:55:22;2.97;;;1.70;;
10343;SDS011;5217;43.960;10.954;2023-10-19T06:57:51;2.75;;;1.60;;
10343;SDS011;5217;43.960;10.954;2023-10-19T07:00:22;1.73;;;1.50;;
10343;SDS011;5217;43.960;10.954;2023-10-19T07:02:54;1.92;;;1.70;;
10343;SDS011;5217;43.960;10.954;2023-10-19T07:05:25;2.20;;;1.77;;
10343;SDS011;5217;43.960;10.954;2023-10-19T07:07:56;3.17;;;2.00;;
10343;SDS011;5217;43.960;10.954;2023-10-19T07:10:26;2.22;;;1.80;;
10343;SDS011;5217;43.960;10.954;2023-10-19T07:12:55;2.08;;;1.85;;
10343;SDS011;5217;43.960;10.954;2023-10-19T07:15:25;2.58;;;2.00;;
10343;SDS011;5217;43.960;10.954;2023-10-19T07:17:54;2.15;;;1.92;;
10343;SDS011;5217;43.960;10.954;2023-10-19T07:20:24;3.72;;;2.40;;
10343;SDS011;5217;43.960;10.954;2023-10-19T07:22:53;2.67;;;2.33;;
10343;SDS011;5217;43.960;10.954;2023-10-19T07:25:22;4.78;;;2.75;;
10343;SDS011;5217;43.960;10.954;2023-10-19T07:27:52;5.32;;;3.60;;
10343;SDS011;5217;43.960;10.954;2023-10-19T07:30:21;5.70;;;4.55;;
10343;SDS011;5217;43.960;10.954;2023-10-19T07:32:53;4.55;;;3.40;;
10343;SDS011;5217;43.960;10.954;2023-10-19T07:35:27;4.68;;;3.05;;
10343;SDS011;5217;43.960;10.954;2023-10-19T07:38:01;3.65;;;2.78;;
10343;SDS011;5217;43.960;10.954;2023-10-19T07:40:31;2.47;;;2.17;;
10343;SDS011;5217;43.960;10.954;2023-10-19T07:42:59;2.90;;;2.60;;
10343;SDS011;5217;43.960;10.954;2023-10-19T07:45:28;3.00;;;2.60;;
10343;SDS011;5217;43.960;10.954;2023-10-19T07:47:57;3.47;;;2.38;;
10343;SDS011;5217;43.960;10.954;2023-10-19T07:50:34;3.55;;;2.60;;
10343;SDS011;5217;43.960;10.954;2023-10-19T07:53:04;3.83;;;3.00;;
10343;SDS011;5217;43.960;10.954;2023-10-19T07:55:32;3.78;;;3.00;;
10343;SDS011;5217;43.960;10.954;2023-10-19T07:58:01;4.68;;;3.33;;
10343;SDS011;5217;43.960;10.954;2023-10-19T08:00:30;3.83;;;3.22;;
10343;SDS011;5217;43.960;10.954;2023-10-19T08:03:00;4.93;;;3.08;;
10343;SDS011;5217;43.960;10.954;2023-10-19T08:05:29;2.97;;;2.60;;
10343;SDS011;5217;43.960;10.954;2023-10-19T08:07:59;3.47;;;2.88;;
10343;SDS011;5217;43.960;10.954;2023-10-19T08:10:30;3.63;;;2.97;;
10343;SDS011;5217;43.960;10.954;2023-10-19T08:13:01;4.07;;;3.10;;
10343;SDS011;5217;43.960;10.954;2023-10-19T08:15:30;3.72;;;3.10;;
10343;SDS011;5217;43.960;10.954;2023-10-19T08:17:59;4.13;;;3.22;;
10343;SDS011;5217;43.960;10.954;2023-10-19T08:20:27;3.83;;;2.88;;
10343;SDS011;5217;43.960;10.954;2023-10-19T08:23:00;3.75;;;2.65;;
10343;SDS011;5217;43.960;10.954;2023-10-19T08:25:29;3.92;;;2.67;;
10343;SDS011;5217;43.960;10.954;2023-10-19T08:28:18;3.53;;;2.70;;
10343;SDS011;5217;43.960;10.954;2023-10-19T08:30:46;3.25;;;2.95;;
10343;SDS011;5217;43.960;10.954;2023-10-19T08:33:24;4.03;;;3.00;;
10343;SDS011;5217;43.960;10.954;2023-10-19T08:35:53;3.22;;;2.80;;
10343;SDS011;5217;43.960;10.954;2023-10-19T08:38:24;3.30;;;2.95;;
10343;SDS011;5217;43.960;10.954;2023-10-19T08:40:53;3.70;;;2.80;;
10343;SDS011;5217;43.960;10.954;2023-10-19T08:43:21;3.95;;;3.20;;
10343;SDS011;5217;43.960;10.954;2023-10-19T08:45:51;3.80;;;3.20;;
10343;SDS011;5217;43.960;10.954;2023-10-19T08:48:21;4.40;;;3.40;;
10343;SDS011;5217;43.960;10.954;2023-10-19T08:50:50;4.70;;;3.40;;
10343;SDS011;5217;43.960;10.954;2023-10-19T08:53:22;4.53;;;2.88;;
10343;SDS011;5217;43.960;10.954;2023-10-19T08:55:53;5.85;;;4.60;;
10343;SDS011;5217;43.960;10.954;2023-10-19T08:58:23;4.35;;;3.38;;
10343;SDS011;5217;43.960;10.954;2023-10-19T09:00:54;4.05;;;3.58;;
10343;SDS011;5217;43.960;10.954;2023-10-19T09:03:23;3.65;;;3.13;;
10343;SDS011;5217;43.960;10.954;2023-10-19T09:05:53;3.72;;;3.20;;
10343;SDS011;5217;43.960;10.954;2023-10-19T09:08:23;5.60;;;4.40;;
10343;SDS011;5217;43.960;10.954;2023-10-19T09:10:53;7.63;;;5.80;;
10343;SDS011;5217;43.960;10.954;2023-10-19T09:13:23;11.52;;;8.50;;
10343;SDS011;5217;43.960;10.954;2023-10-19T09:15:52;15.48;;;10.65;;
10343;SDS011;5217;43.960;10.954;2023-10-19T09:18:24;20.58;;;11.70;;
10343;SDS011;5217;43.960;10.954;2023-10-19T09:20:56;17.40;;;12.48;;
10343;SDS011;5217;43.960;10.954;2023-10-19T09:23:29;15.88;;;11.05;;
10343;SDS011;5217;43.960;10.954;2023-10-19T09:26:00;15.75;;;9.88;;
10343;SDS011;5217;43.960;10.954;2023-10-19T09:28:30;10.63;;;7.18;;
10343;SDS011;5217;43.960;10.954;2023-10-19T09:31:01;7.68;;;6.25;;
10343;SDS011;5217;43.960;10.954;2023-10-19T09:33:31;7.47;;;5.55;;
10343;SDS011;5217;43.960;10.954;2023-10-19T09:36:02;7.38;;;5.80;;
10343;SDS011;5217;43.960;10.954;2023-10-19T09:38:43;5.85;;;4.47;;
10343;SDS011;5217;43.960;10.954;2023-10-19T09:41:17;8.95;;;4.45;;
10343;SDS011;5217;43.960;10.954;2023-10-19T09:43:47;6.22;;;4.55;;
10343;SDS011;5217;43.960;10.954;2023-10-19T09:46:20;7.50;;;5.47;;
10343;SDS011;5217;43.960;10.954;2023-10-19T09:48:50;20.92;;;18.60;;
10343;SDS011;5217;43.960;10.954;2023-10-19T09:51:19;23.77;;;18.80;;
10343;SDS011;5217;43.960;10.954;2023-10-19T09:53:51;21.33;;;18.25;;
10343;SDS011;5217;43.960;10.954;2023-10-19T09:56:28;21.55;;;19.25;;
10343;SDS011;5217;43.960;10.954;2023-10-19T09:59:05;17.27;;;15.50;;
10343;SDS011;5217;43.960;10.954;2023-10-19T10:04:40;13.48;;;10.25;;
10343;SDS011;5217;43.960;10.954;2023-10-19T10:07:12;10.27;;;9.23;;
10343;SDS011;5217;43.960;10.954;2023-10-19T10:09:57;9.60;;;8.60;;
10343;SDS011;5217;43.960;10.954;2023-10-19T10:12:27;9.50;;;8.50;;
10343;SDS011;5217;43.960;10.954;2023-10-19T10:14:56;9.48;;;8.50;;
10343;SDS011;5217;43.960;10.954;2023-10-19T10:17:32;8.95;;;7.97;;
10343;SDS011;5217;43.960;10.954;2023-10-19T10:23:17;5.72;;;5.20;;
10343;SDS011;5217;43.960;10.954;2023-10-19T10:25:51;6.60;;;5.28;;
10343;SDS011;5217;43.960;10.954;2023-10-19T10:28:22;5.40;;;4.82;;
10343;SDS011;5217;43.960;10.954;2023-10-19T10:33:42;5.45;;;4.95;;
10343;SDS011;5217;43.960;10.954;2023-10-19T10:36:14;5.57;;;4.82;;
10343;SDS011;5217;43.960;10.954;2023-10-19T10:38:45;6.32;;;5.70;;
10343;SDS011;5217;43.960;10.954;2023-10-19T10:41:21;6.25;;;5.28;;
10343;SDS011;5217;43.960;10.954;2023-10-19T10:43:53;7.13;;;5.45;;
10343;SDS011;5217;43.960;10.954;2023-10-19T10:46:23;5.82;;;5.18;;
10343;SDS011;5217;43.960;10.954;2023-10-19T10:48:52;5.63;;;5.03;;
10343;SDS011;5217;43.960;10.954;2023-10-19T10:51:21;6.30;;;5.28;;
10343;SDS011;5217;43.960;10.954;2023-10-19T10:53:51;7.43;;;5.75;;
10343;SDS011;5217;43.960;10.954;2023-10-19T10:56:21;6.22;;;5.40;;
10343;SDS011;5217;43.960;10.954;2023-10-19T10:58:50;6.03;;;5.07;;
10343;SDS011;5217;43.960;10.954;2023-10-19T11:01:27;6.78;;;5.22;;
10343;SDS011;5217;43.960;10.954;2023-10-19T11:04:06;7.60;;;6.25;;
10343;SDS011;5217;43.960;10.954;2023-10-19T11:06:49;5.95;;;5.22;;
10343;SDS011;5217;43.960;10.954;2023-10-19T11:09:19;7.53;;;5.00;;
10343;SDS011;5217;43.960;10.954;2023-10-19T11:11:48;7.88;;;4.88;;
10343;SDS011;5217;43.960;10.954;2023-10-19T11:14:20;10.27;;;4.82;;
10343;SDS011;5217;43.960;10.954;2023-10-19T11:16:51;6.30;;;4.25;;
10343;SDS011;5217;43.960;10.954;2023-10-19T11:19:20;6.85;;;3.85;;
10343;SDS011;5217;43.960;10.954;2023-10-19T11:21:52;10.60;;;5.00;;
10343;SDS011;5217;43.960;10.954;2023-10-19T11:24:26;7.28;;;4.10;;
10343;SDS011;5217;43.960;10.954;2023-10-19T11:26:59;6.93;;;3.78;;
10343;SDS011;5217;43.960;10.954;2023-10-19T11:29:28;10.25;;;4.10;;
10343;SDS011;5217;43.960;10.954;2023-10-19T11:31:57;7.53;;;3.65;;
10343;SDS011;5217;43.960;10.954;2023-10-19T11:34:27;10.48;;;4.90;;
10343;SDS011;5217;43.960;10.954;2023-10-19T11:36:57;10.43;;;6.03;;
10343;SDS011;5217;43.960;10.954;2023-10-19T11:39:27;10.98;;;6.50;;
10343;SDS011;5217;43.960;10.954;2023-10-19T11:41:56;11.82;;;7.57;;
10343;SDS011;5217;43.960;10.954;2023-10-19T11:44:24;8.27;;;6.70;;
10343;SDS011;5217;43.960;10.954;2023-10-19T11:46:54;11.55;;;6.72;;
10343;SDS011;5217;43.960;10.954;2023-10-19T11:49:23;8.23;;;6.30;;
10343;SDS011;5217;43.960;10.954;2023-10-19T11:51:52;7.78;;;6.13;;
10343;SDS011;5217;43.960;10.954;2023-10-19T11:54:21;8.35;;;6.10;;
10343;SDS011;5217;43.960;10.954;2023-10-19T11:56:49;7.95;;;6.00;;
10343;SDS011;5217;43.960;10.954;2023-10-19T11:59:19;11.55;;;6.38;;
10343;SDS011;5217;43.960;10.954;2023-10-19T12:01:48;9.25;;;6.65;;
10343;SDS011;5217;43.960;10.954;2023-10-19T12:04:18;8.25;;;6.45;;
10343;SDS011;5217;43.960;10.954;2023-10-19T12:06:46;6.63;;;6.00;;
10343;SDS011;5217;43.960;10.954;2023-10-19T12:09:15;6.75;;;6.00;;
10343;SDS011;5217;43.960;10.954;2023-10-19T12:11:44;8.35;;;5.93;;
10343;SDS011;5217;43.960;10.954;2023-10-19T12:14:14;7.93;;;6.13;;
10343;SDS011;5217;43.960;10.954;2023-10-19T12:16:44;6.35;;;5.75;;
10343;SDS011;5217;43.960;10.954;2023-10-19T12:19:13;9.85;;;6.95;;
10343;SDS011;5217;43.960;10.954;2023-10-19T12:21:45;8.07;;;6.45;;
10343;SDS011;5217;43.960;10.954;2023-10-19T12:24:16;8.07;;;6.18;;
10343;SDS011;5217;43.960;10.954;2023-10-19T12:26:44;6.78;;;5.75;;
10343;SDS011;5217;43.960;10.954;2023-10-19T12:29:13;6.97;;;5.85;;
10343;SDS011;5217;43.960;10.954;2023-10-19T12:31:43;7.85;;;6.35;;
10343;SDS011;5217;43.960;10.954;2023-10-19T12:34:13;7.22;;;6.28;;
10343;SDS011;5217;43.960;10.954;2023-10-19T12:36:44;8.45;;;6.53;;
10343;SDS011;5217;43.960;10.954;2023-10-19T12:39:16;8.25;;;7.00;;
10343;SDS011;5217;43.960;10.954;2023-10-19T12:41:58;9.38;;;6.82;;
10343;SDS011;5217;43.960;10.954;2023-10-19T12:44:27;8.18;;;7.07;;
10343;SDS011;5217;43.960;10.954;2023-10-19T12:46:58;9.60;;;7.22;;
10343;SDS011;5217;43.960;10.954;2023-10-19T12:49:27;8.85;;;6.40;;
10343;SDS011;5217;43.960;10.954;2023-10-19T12:51:57;8.05;;;6.60;;
10343;SDS011;5217;43.960;10.954;2023-10-19T12:54:27;7.65;;;6.85;;
10343;SDS011;5217;43.960;10.954;2023-10-19T12:56:56;7.63;;;6.40;;
10343;SDS011;5217;43.960;10.954;2023-10-19T12:59:24;8.20;;;6.68;;
10343;SDS011;5217;43.960;10.954;2023-10-19T13:01:53;8.15;;;6.70;;
10343;SDS011;5217;43.960;10.954;2023-10-19T13:04:25;8.77;;;6.40;;
10343;SDS011;5217;43.960;10.954;2023-10-19T13:06:59;8.20;;;6.40;;
10343;SDS011;5217;43.960;10.954;2023-10-19T13:09:32;7.05;;;6.25;;
10343;SDS011;5217;43.960;10.954;2023-10-19T13:12:02;8.77;;;6.50;;
10343;SDS011;5217;43.960;10.954;2023-10-19T13:14:34;9.40;;;7.00;;
10343;SDS011;5217;43.960;10.954;2023-10-19T13:17:03;9.05;;;6.45;;
10343;SDS011;5217;43.960;10.954;2023-10-19T13:19:32;7.20;;;6.50;;
10343;SDS011;5217;43.960;10.954;2023-10-19T13:22:04;7.18;;;6.47;;
10343;SDS011;5217;43.960;10.954;2023-10-19T13:24:34;7.72;;;6.53;;
10343;SDS011;5217;43.960;10.954;2023-10-19T13:27:07;7.57;;;6.20;;
10343;SDS011;5217;43.960;10.954;2023-10-19T13:29:37;7.85;;;6.30;;
10343;SDS011;5217;43.960;10.954;2023-10-19T13:32:08;10.77;;;6.95;;
10343;SDS011;5217;43.960;10.954;2023-10-19T13:34:37;8.65;;;6.22;;
10343;SDS011;5217;43.960;10.954;2023-10-19T13:37:08;8.48;;;6.25;;
10343;SDS011;5217;43.960;10.954;2023-10-19T13:39:37;8.85;;;6.07;;
10343;SDS011;5217;43.960;10.954;2023-10-19T13:42:06;8.35;;;5.82;;
10343;SDS011;5217;43.960;10.954;2023-10-19T13:44:35;7.35;;;5.38;;
10343;SDS011;5217;43.960;10.954;2023-10-19T13:47:05;7.65;;;5.40;;
10343;SDS011;5217;43.960;10.954;2023-10-19T13:49:35;8.65;;;5.78;;
10343;SDS011;5217;43.960;10.954;2023-10-19T13:52:04;9.68;;;5.45;;
10343;SDS011;5217;43.960;10.954;2023-10-19T13:54:36;9.80;;;5.35;;
10343;SDS011;5217;43.960;10.954;2023-10-19T13:57:05;9.98;;;5.65;;
10343;SDS011;5217;43.960;10.954;2023-10-19T13:59:33;11.10;;;5.50;;
10343;SDS011;5217;43.960;10.954;2023-10-19T14:02:01;9.43;;;5.70;;
10343;SDS011;5217;43.960;10.954;2023-10-19T14:04:30;10.00;;;6.55;;
10343;SDS011;5217;43.960;10.954;2023-10-19T14:06:59;14.10;;;7.88;;
10343;SDS011;5217;43.960;10.954;2023-10-19T14:09:27;14.68;;;8.85;;
10343;SDS011;5217;43.960;10.954;2023-10-19T14:11:59;13.02;;;9.57;;
10343;SDS011;5217;43.960;10.954;2023-10-19T14:14:30;15.60;;;8.23;;
10343;SDS011;5217;43.960;10.954;2023-10-19T14:16:59;12.65;;;8.18;;
10343;SDS011;5217;43.960;10.954;2023-10-19T14:19:27;13.38;;;7.50;;
10343;SDS011;5217;43.960;10.954;2023-10-19T14:21:59;13.43;;;8.75;;
10343;SDS011;5217;43.960;10.954;2023-10-19T14:24:27;14.40;;;9.77;;
10343;SDS011;5217;43.960;10.954;2023-10-19T14:26:56;16.52;;;10.55;;
10343;SDS011;5217;43.960;10.954;2023-10-19T14:29:27;20.45;;;10.85;;
10343;SDS011;5217;43.960;10.954;2023-10-19T14:31:56;18.50;;;11.52;;
10343;SDS011;5217;43.960;10.954;2023-10-19T14:34:25;19.25;;;11.93;;
10343;SDS011;5217;43.960;10.954;2023-10-19T14:36:53;19.40;;;12.50;;
10343;SDS011;5217;43.960;10.954;2023-10-19T14:39:22;19.52;;;12.48;;
10343;SDS011;5217;43.960;10.954;2023-10-19T14:41:52;20.05;;;12.13;;
10343;SDS011;5217;43.960;10.954;2023-10-19T14:44:22;19.75;;;12.23;;
10343;SDS011;5217;43.960;10.954;2023-10-19T14:46:51;22.08;;;11.77;;
10343;SDS011;5217;43.960;10.954;2023-10-19T14:49:20;16.92;;;10.70;;
10343;SDS011;5217;43.960;10.954;2023-10-19T14:51:48;19.02;;;10.02;;
10343;SDS011;5217;43.960;10.954;2023-10-19T14:54:17;17.38;;;9.25;;
10343;SDS011;5217;43.960;10.954;2023-10-19T14:56:45;15.30;;;8.25;;
10343;SDS011;5217;43.960;10.954;2023-10-19T14:59:14;16.35;;;7.60;;
10343;SDS011;5217;43.960;10.954;2023-10-19T15:01:44;13.13;;;7.43;;
10343;SDS011;5217;43.960;10.954;2023-10-19T15:04:14;15.57;;;7.43;;
10343;SDS011;5217;43.960;10.954;2023-10-19T15:06:42;10.80;;;6.65;;
10343;SDS011;5217;43.960;10.954;2023-10-19T15:09:11;12.90;;;7.97;;
10343;SDS011;5217;43.960;10.954;2023-10-19T15:11:47;13.30;;;8.30;;
10343;SDS011;5217;43.960;10.954;2023-10-19T15:14:15;16.67;;;8.55;;
10343;SDS011;5217;43.960;10.954;2023-10-19T15:16:44;12.70;;;7.43;;
10343;SDS011;5217;43.960;10.954;2023-10-19T15:19:12;13.23;;;7.43;;